sensor_id;sensor_type;location;lat;lon;timestamp;temperature;humidity
22562;DHT22;11447;50.562;8.504;2022-08-19T00:02:12;22.70;72.90
22562;DHT22;11447;50.562;8.504;2022-08-19T00:04:39;22.70;72.80
22562;DHT22;11447;50.562;8.504;2022-08-19T00:07:06;22.70;72.80
22562;DHT22;11447;50.562;8.504;2022-08-19T00:09:33;22.70;72.80
22562;DHT22;11447;50.562;8.504;2022-08-19T00:12:00;22.70;72.90
22562;DHT22;11447;50.562;8.504;2022-08-19T00:14:29;22.60;72.80
22562;DHT22;11447;50.562;8.504;2022-08-19T00:16:58;22.70;72.80
22562;DHT22;11447;50.562;8.504;2022-08-19T00:19:27;22.60;72.80
22562;DHT22;11447;50.562;8.504;2022-08-19T00:21:57;22.70;73.10
22562;DHT22;11447;50.562;8.504;2022-08-19T00:24:23;22.60;73.20
22562;DHT22;11447;50.562;8.504;2022-08-19T00:26:50;22.60;73.10
22562;DHT22;11447;50.562;8.504;2022-08-19T00:29:22;22.60;73.50
22562;DHT22;11447;50.562;8.504;2022-08-19T00:31:51;22.50;73.80
22562;DHT22;11447;50.562;8.504;2022-08-19T00:34:22;22.60;73.90
22562;DHT22;11447;50.562;8.504;2022-08-19T00:36:49;22.60;73.90
22562;DHT22;11447;50.562;8.504;2022-08-19T00:39:16;22.50;74.30
22562;DHT22;11447;50.562;8.504;2022-08-19T00:41:45;22.50;74.70
22562;DHT22;11447;50.562;8.504;2022-08-19T00:44:16;22.40;74.80
22562;DHT22;11447;50.562;8.504;2022-08-19T00:46:45;22.40;75.00
22562;DHT22;11447;50.562;8.504;2022-08-19T00:52:14;22.30;75.20
22562;DHT22;11447;50.562;8.504;2022-08-19T00:54:42;22.30;75.40
22562;DHT22;11447;50.562;8.504;2022-08-19T00:57:11;22.30;75.70
22562;DHT22;11447;50.562;8.504;2022-08-19T00:59:41;22.30;75.60
22562;DHT22;11447;50.562;8.504;2022-08-19T01:02:27;22.30;75.90
22562;DHT22;11447;50.562;8.504;2022-08-19T01:04:54;22.30;75.90
22562;DHT22;11447;50.562;8.504;2022-08-19T01:07:23;22.30;75.90
22562;DHT22;11447;50.562;8.504;2022-08-19T01:09:53;22.30;75.70
22562;DHT22;11447;50.562;8.504;2022-08-19T01:12:22;22.20;75.70
22562;DHT22;11447;50.562;8.504;2022-08-19T01:14:49;22.20;75.80
22562;DHT22;11447;50.562;8.504;2022-08-19T01:17:16;22.20;76.20
22562;DHT22;11447;50.562;8.504;2022-08-19T01:19:45;22.20;76.20
22562;DHT22;11447;50.562;8.504;2022-08-19T01:22:17;22.20;76.50
22562;DHT22;11447;50.562;8.504;2022-08-19T01:24:54;22.10;76.80
22562;DHT22;11447;50.562;8.504;2022-08-19T01:27:24;22.10;77.20
22562;DHT22;11447;50.562;8.504;2022-08-19T01:29:51;22.00;77.30
22562;DHT22;11447;50.562;8.504;2022-08-19T01:32:18;22.00;77.50
22562;DHT22;11447;50.562;8.504;2022-08-19T01:34:59;22.00;77.80
22562;DHT22;11447;50.562;8.504;2022-08-19T01:37:40;21.90;78.10
22562;DHT22;11447;50.562;8.504;2022-08-19T01:40:07;21.90;78.30
22562;DHT22;11447;50.562;8.504;2022-08-19T01:42:35;21.80;78.70
22562;DHT22;11447;50.562;8.504;2022-08-19T01:45:04;21.80;79.00
22562;DHT22;11447;50.562;8.504;2022-08-19T01:47:31;21.80;79.30
22562;DHT22;11447;50.562;8.504;2022-08-19T01:49:58;21.70;79.60
22562;DHT22;11447;50.562;8.504;2022-08-19T01:52:24;21.70;80.00
22562;DHT22;11447;50.562;8.504;2022-08-19T01:54:51;21.70;80.20
22562;DHT22;11447;50.562;8.504;2022-08-19T01:57:17;21.60;80.40
22562;DHT22;11447;50.562;8.504;2022-08-19T01:59:44;21.60;80.90
22562;DHT22;11447;50.562;8.504;2022-08-19T02:02:11;21.60;81.10
22562;DHT22;11447;50.562;8.504;2022-08-19T02:04:38;21.50;81.30
22562;DHT22;11447;50.562;8.504;2022-08-19T02:07:06;21.50;81.60
22562;DHT22;11447;50.562;8.504;2022-08-19T02:09:34;21.50;81.90
22562;DHT22;11447;50.562;8.504;2022-08-19T02:12:04;21.50;82.20
22562;DHT22;11447;50.562;8.504;2022-08-19T02:14:34;21.50;82.40
22562;DHT22;11447;50.562;8.504;2022-08-19T02:17:03;21.50;82.30
22562;DHT22;11447;50.562;8.504;2022-08-19T02:19:31;21.40;82.40
22562;DHT22;11447;50.562;8.504;2022-08-19T02:22:04;21.40;82.60
22562;DHT22;11447;50.562;8.504;2022-08-19T02:24:31;21.50;82.90
22562;DHT22;11447;50.562;8.504;2022-08-19T02:26:58;21.40;82.80
22562;DHT22;11447;50.562;8.504;2022-08-19T02:29:25;21.40;82.90
22562;DHT22;11447;50.562;8.504;2022-08-19T02:31:51;21.40;83.30
22562;DHT22;11447;50.562;8.504;2022-08-19T02:34:18;21.40;83.50
22562;DHT22;11447;50.562;8.504;2022-08-19T02:36:45;21.40;83.60
22562;DHT22;11447;50.562;8.504;2022-08-19T02:39:17;21.40;83.60
22562;DHT22;11447;50.562;8.504;2022-08-19T02:41:44;21.40;83.60
22562;DHT22;11447;50.562;8.504;2022-08-19T02:44:11;21.40;83.40
22562;DHT22;11447;50.562;8.504;2022-08-19T02:46:57;21.40;83.60
22562;DHT22;11447;50.562;8.504;2022-08-19T02:49:23;21.40;84.00
22562;DHT22;11447;50.562;8.504;2022-08-19T02:51:50;21.40;84.50
22562;DHT22;11447;50.562;8.504;2022-08-19T02:54:17;21.30;84.40
22562;DHT22;11447;50.562;8.504;2022-08-19T02:56:46;21.30;84.70
22562;DHT22;11447;50.562;8.504;2022-08-19T02:59:12;21.30;84.50
22562;DHT22;11447;50.562;8.504;2022-08-19T03:01:42;21.30;84.90
22562;DHT22;11447;50.562;8.504;2022-08-19T03:04:10;21.20;85.00
22562;DHT22;11447;50.562;8.504;2022-08-19T03:06:41;21.20;85.30
22562;DHT22;11447;50.562;8.504;2022-08-19T03:09:08;21.20;85.40
22562;DHT22;11447;50.562;8.504;2022-08-19T03:11:35;21.20;85.50
22562;DHT22;11447;50.562;8.504;2022-08-19T03:14:02;21.20;85.80
22562;DHT22;11447;50.562;8.504;2022-08-19T03:16:30;21.20;86.00
22562;DHT22;11447;50.562;8.504;2022-08-19T03:19:02;21.20;86.20
22562;DHT22;11447;50.562;8.504;2022-08-19T03:21:29;21.20;86.30
22562;DHT22;11447;50.562;8.504;2022-08-19T03:24:00;21.20;86.80
22562;DHT22;11447;50.562;8.504;2022-08-19T03:26:27;21.10;86.90
22562;DHT22;11447;50.562;8.504;2022-08-19T03:28:54;21.10;87.10
22562;DHT22;11447;50.562;8.504;2022-08-19T03:31:25;21.10;87.00
22562;DHT22;11447;50.562;8.504;2022-08-19T03:34:15;21.10;87.40
22562;DHT22;11447;50.562;8.504;2022-08-19T03:36:44;21.10;87.50
22562;DHT22;11447;50.562;8.504;2022-08-19T03:39:11;21.10;87.80
22562;DHT22;11447;50.562;8.504;2022-08-19T03:41:39;21.10;88.00
22562;DHT22;11447;50.562;8.504;2022-08-19T03:44:14;21.10;88.30
22562;DHT22;11447;50.562;8.504;2022-08-19T03:46:45;21.10;88.30
22562;DHT22;11447;50.562;8.504;2022-08-19T03:49:12;21.00;88.20
22562;DHT22;11447;50.562;8.504;2022-08-19T03:51:43;21.00;88.00
22562;DHT22;11447;50.562;8.504;2022-08-19T03:54:11;21.00;88.20
22562;DHT22;11447;50.562;8.504;2022-08-19T03:56:38;21.00;88.60
22562;DHT22;11447;50.562;8.504;2022-08-19T03:59:06;21.00;88.80
22562;DHT22;11447;50.562;8.504;2022-08-19T04:01:34;21.00;89.30
22562;DHT22;11447;50.562;8.504;2022-08-19T04:04:05;20.90;88.90
22562;DHT22;11447;50.562;8.504;2022-08-19T04:06:33;20.90;88.90
22562;DHT22;11447;50.562;8.504;2022-08-19T04:09:05;20.90;89.50
22562;DHT22;11447;50.562;8.504;2022-08-19T04:11:36;20.90;89.70
22562;DHT22;11447;50.562;8.504;2022-08-19T04:14:10;20.90;89.70
22562;DHT22;11447;50.562;8.504;2022-08-19T04:16:37;20.90;89.50
22562;DHT22;11447;50.562;8.504;2022-08-19T04:19:04;20.90;90.10
22562;DHT22;11447;50.562;8.504;2022-08-19T04:21:34;20.90;90.20
22562;DHT22;11447;50.562;8.504;2022-08-19T04:24:03;20.90;90.30
22562;DHT22;11447;50.562;8.504;2022-08-19T04:26:32;20.90;90.40
22562;DHT22;11447;50.562;8.504;2022-08-19T04:29:00;20.80;90.50
22562;DHT22;11447;50.562;8.504;2022-08-19T04:31:28;20.80;90.50
22562;DHT22;11447;50.562;8.504;2022-08-19T04:33:55;20.80;90.50
22562;DHT22;11447;50.562;8.504;2022-08-19T04:36:25;20.80;90.70
22562;DHT22;11447;50.562;8.504;2022-08-19T04:38:53;20.80;90.60
22562;DHT22;11447;50.562;8.504;2022-08-19T04:41:20;20.80;90.70
22562;DHT22;11447;50.562;8.504;2022-08-19T04:44:06;20.80;90.90
22562;DHT22;11447;50.562;8.504;2022-08-19T04:46:35;20.80;90.90
22562;DHT22;11447;50.562;8.504;2022-08-19T04:49:06;20.80;90.80
22562;DHT22;11447;50.562;8.504;2022-08-19T04:51:40;20.80;90.90
22562;DHT22;11447;50.562;8.504;2022-08-19T04:54:09;20.80;91.10
22562;DHT22;11447;50.562;8.504;2022-08-19T04:56:35;20.70;91.20
22562;DHT22;11447;50.562;8.504;2022-08-19T04:59:04;20.70;91.20
22562;DHT22;11447;50.562;8.504;2022-08-19T05:01:32;20.70;91.20
22562;DHT22;11447;50.562;8.504;2022-08-19T05:04:00;20.70;91.30
22562;DHT22;11447;50.562;8.504;2022-08-19T05:06:31;20.70;91.30
22562;DHT22;11447;50.562;8.504;2022-08-19T05:09:00;20.70;91.40
22562;DHT22;11447;50.562;8.504;2022-08-19T05:11:29;20.70;91.40
22562;DHT22;11447;50.562;8.504;2022-08-19T05:13:56;20.70;91.40
22562;DHT22;11447;50.562;8.504;2022-08-19T05:16:25;20.70;91.30
22562;DHT22;11447;50.562;8.504;2022-08-19T05:18:55;20.80;91.20
22562;DHT22;11447;50.562;8.504;2022-08-19T05:21:41;20.80;91.30
22562;DHT22;11447;50.562;8.504;2022-08-19T05:24:26;20.80;91.40
22562;DHT22;11447;50.562;8.504;2022-08-19T05:26:56;20.80;91.30
22562;DHT22;11447;50.562;8.504;2022-08-19T05:29:24;20.80;91.20
22562;DHT22;11447;50.562;8.504;2022-08-19T05:31:57;20.90;91.30
22562;DHT22;11447;50.562;8.504;2022-08-19T05:34:25;20.90;91.30
22562;DHT22;11447;50.562;8.504;2022-08-19T05:36:56;20.90;91.20
22562;DHT22;11447;50.562;8.504;2022-08-19T05:39:27;21.10;91.20
22562;DHT22;11447;50.562;8.504;2022-08-19T05:41:58;21.10;90.90
22562;DHT22;11447;50.562;8.504;2022-08-19T05:44:29;21.10;90.70
22562;DHT22;11447;50.562;8.504;2022-08-19T05:46:59;21.20;90.60
22562;DHT22;11447;50.562;8.504;2022-08-19T05:49:26;21.30;90.50
22562;DHT22;11447;50.562;8.504;2022-08-19T05:51:53;21.40;90.50
22562;DHT22;11447;50.562;8.504;2022-08-19T05:54:24;21.40;90.30
22562;DHT22;11447;50.562;8.504;2022-08-19T05:56:55;21.50;90.20
22562;DHT22;11447;50.562;8.504;2022-08-19T05:59:24;21.50;90.20
22562;DHT22;11447;50.562;8.504;2022-08-19T06:01:51;21.60;90.20
22562;DHT22;11447;50.562;8.504;2022-08-19T06:04:23;21.60;89.90
22562;DHT22;11447;50.562;8.504;2022-08-19T06:06:50;21.70;89.40
22562;DHT22;11447;50.562;8.504;2022-08-19T06:09:20;21.70;89.60
22562;DHT22;11447;50.562;8.504;2022-08-19T06:11:55;21.80;88.80
22562;DHT22;11447;50.562;8.504;2022-08-19T06:14:29;21.90;88.60
22562;DHT22;11447;50.562;8.504;2022-08-19T06:16:58;22.00;88.10
22562;DHT22;11447;50.562;8.504;2022-08-19T06:19:32;22.10;88.20
22562;DHT22;11447;50.562;8.504;2022-08-19T06:21:59;22.10;87.40
22562;DHT22;11447;50.562;8.504;2022-08-19T06:24:29;22.20;87.40
22562;DHT22;11447;50.562;8.504;2022-08-19T06:26:56;22.30;86.90
22562;DHT22;11447;50.562;8.504;2022-08-19T06:29:27;22.50;86.10
22562;DHT22;11447;50.562;8.504;2022-08-19T06:31:54;22.90;85.70
22562;DHT22;11447;50.562;8.504;2022-08-19T06:34:25;23.80;82.00
22562;DHT22;11447;50.562;8.504;2022-08-19T06:36:54;24.50;78.40
22562;DHT22;11447;50.562;8.504;2022-08-19T06:39:24;25.30;74.40
22562;DHT22;11447;50.562;8.504;2022-08-19T06:41:52;25.80;71.80
22562;DHT22;11447;50.562;8.504;2022-08-19T06:44:25;26.40;69.50
22562;DHT22;11447;50.562;8.504;2022-08-19T06:46:53;26.70;67.50
22562;DHT22;11447;50.562;8.504;2022-08-19T06:49:21;26.90;66.40
22562;DHT22;11447;50.562;8.504;2022-08-19T06:51:48;27.30;65.00
22562;DHT22;11447;50.562;8.504;2022-08-19T06:54:17;27.60;63.10
22562;DHT22;11447;50.562;8.504;2022-08-19T06:56:45;27.90;61.60
22562;DHT22;11447;50.562;8.504;2022-08-19T06:59:14;28.00;61.20
22562;DHT22;11447;50.562;8.504;2022-08-19T07:01:43;28.20;60.10
22562;DHT22;11447;50.562;8.504;2022-08-19T07:04:12;28.60;59.30
22562;DHT22;11447;50.562;8.504;2022-08-19T07:06:44;28.90;58.50
22562;DHT22;11447;50.562;8.504;2022-08-19T07:09:20;29.10;58.10
22562;DHT22;11447;50.562;8.504;2022-08-19T07:11:48;29.40;57.50
22562;DHT22;11447;50.562;8.504;2022-08-19T07:14:16;29.70;56.70
22562;DHT22;11447;50.562;8.504;2022-08-19T07:19:12;29.90;55.10
22562;DHT22;11447;50.562;8.504;2022-08-19T07:21:46;29.90;55.20
22562;DHT22;11447;50.562;8.504;2022-08-19T07:24:16;30.00;54.80
22562;DHT22;11447;50.562;8.504;2022-08-19T07:26:43;30.30;54.90
22562;DHT22;11447;50.562;8.504;2022-08-19T07:29:10;30.30;53.60
22562;DHT22;11447;50.562;8.504;2022-08-19T07:31:39;30.00;54.30
22562;DHT22;11447;50.562;8.504;2022-08-19T07:34:09;30.20;53.60
22562;DHT22;11447;50.562;8.504;2022-08-19T07:36:38;30.30;53.60
22562;DHT22;11447;50.562;8.504;2022-08-19T07:39:18;30.20;53.00
22562;DHT22;11447;50.562;8.504;2022-08-19T07:41:45;30.10;53.50
22562;DHT22;11447;50.562;8.504;2022-08-19T07:44:14;30.00;53.30
22562;DHT22;11447;50.562;8.504;2022-08-19T07:46:43;29.70;53.50
22562;DHT22;11447;50.562;8.504;2022-08-19T07:49:13;29.30;54.00
22562;DHT22;11447;50.562;8.504;2022-08-19T07:51:49;29.00;54.70
22562;DHT22;11447;50.562;8.504;2022-08-19T07:54:16;28.60;54.40
22562;DHT22;11447;50.562;8.504;2022-08-19T07:56:43;28.20;55.00
22562;DHT22;11447;50.562;8.504;2022-08-19T07:59:10;27.70;55.60
22562;DHT22;11447;50.562;8.504;2022-08-19T08:01:39;27.40;56.50
22562;DHT22;11447;50.562;8.504;2022-08-19T08:04:07;27.10;57.20
22562;DHT22;11447;50.562;8.504;2022-08-19T08:06:53;27.10;57.40
22562;DHT22;11447;50.562;8.504;2022-08-19T08:09:39;27.10;57.50
22562;DHT22;11447;50.562;8.504;2022-08-19T08:12:09;27.00;58.00
22562;DHT22;11447;50.562;8.504;2022-08-19T08:14:58;26.90;57.90
22562;DHT22;11447;50.562;8.504;2022-08-19T08:17:28;26.80;58.00
22562;DHT22;11447;50.562;8.504;2022-08-19T08:20:19;26.90;58.20
22562;DHT22;11447;50.562;8.504;2022-08-19T08:22:46;27.10;58.10
22562;DHT22;11447;50.562;8.504;2022-08-19T08:25:32;27.10;57.40
22562;DHT22;11447;50.562;8.504;2022-08-19T08:28:02;27.10;57.70
22562;DHT22;11447;50.562;8.504;2022-08-19T08:30:30;27.20;57.30
22562;DHT22;11447;50.562;8.504;2022-08-19T08:32:59;27.30;57.20
22562;DHT22;11447;50.562;8.504;2022-08-19T08:35:29;27.30;57.10
22562;DHT22;11447;50.562;8.504;2022-08-19T08:37:58;27.30;57.20
22562;DHT22;11447;50.562;8.504;2022-08-19T08:40:47;27.30;56.80
22562;DHT22;11447;50.562;8.504;2022-08-19T08:46:23;27.20;56.90
22562;DHT22;11447;50.562;8.504;2022-08-19T08:49:10;27.30;56.70
22562;DHT22;11447;50.562;8.504;2022-08-19T08:51:42;27.20;56.70
22562;DHT22;11447;50.562;8.504;2022-08-19T08:54:14;27.30;56.50
22562;DHT22;11447;50.562;8.504;2022-08-19T08:56:43;27.30;56.40
22562;DHT22;11447;50.562;8.504;2022-08-19T08:59:19;27.30;56.40
22562;DHT22;11447;50.562;8.504;2022-08-19T09:01:49;27.30;56.30
22562;DHT22;11447;50.562;8.504;2022-08-19T09:04:16;27.30;56.10
22562;DHT22;11447;50.562;8.504;2022-08-19T09:09:17;27.30;55.90
22562;DHT22;11447;50.562;8.504;2022-08-19T09:17:09;27.10;56.30
22562;DHT22;11447;50.562;8.504;2022-08-19T09:19:46;27.10;56.60
22562;DHT22;11447;50.562;8.504;2022-08-19T09:22:15;27.10;56.10
22562;DHT22;11447;50.562;8.504;2022-08-19T09:24:54;27.20;56.20
22562;DHT22;11447;50.562;8.504;2022-08-19T09:27:21;27.30;56.20
22562;DHT22;11447;50.562;8.504;2022-08-19T09:30:13;27.20;55.70
22562;DHT22;11447;50.562;8.504;2022-08-19T09:32:41;27.00;56.20
22562;DHT22;11447;50.562;8.504;2022-08-19T09:35:09;26.90;56.40
22562;DHT22;11447;50.562;8.504;2022-08-19T09:37:40;27.00;56.40
22562;DHT22;11447;50.562;8.504;2022-08-19T09:40:09;27.00;56.50
22562;DHT22;11447;50.562;8.504;2022-08-19T09:42:37;27.10;56.30
22562;DHT22;11447;50.562;8.504;2022-08-19T09:45:18;27.10;55.80
22562;DHT22;11447;50.562;8.504;2022-08-19T09:47:47;27.00;55.60
22562;DHT22;11447;50.562;8.504;2022-08-19T09:50:14;27.00;55.40
22562;DHT22;11447;50.562;8.504;2022-08-19T09:52:42;27.10;55.10
22562;DHT22;11447;50.562;8.504;2022-08-19T09:55:23;27.10;54.30
22562;DHT22;11447;50.562;8.504;2022-08-19T09:57:58;27.10;54.70
22562;DHT22;11447;50.562;8.504;2022-08-19T10:00:24;27.00;54.90
22562;DHT22;11447;50.562;8.504;2022-08-19T10:02:51;27.20;55.10
22562;DHT22;11447;50.562;8.504;2022-08-19T10:05:18;27.30;55.10
22562;DHT22;11447;50.562;8.504;2022-08-19T10:08:08;27.40;54.90
22562;DHT22;11447;50.562;8.504;2022-08-19T10:10:42;27.40;54.70
22562;DHT22;11447;50.562;8.504;2022-08-19T10:13:15;27.40;54.40
22562;DHT22;11447;50.562;8.504;2022-08-19T10:15:46;27.40;54.00
22562;DHT22;11447;50.562;8.504;2022-08-19T10:18:15;27.40;53.90
22562;DHT22;11447;50.562;8.504;2022-08-19T10:20:48;27.50;53.80
22562;DHT22;11447;50.562;8.504;2022-08-19T10:23:18;27.50;52.90
22562;DHT22;11447;50.562;8.504;2022-08-19T10:25:49;27.50;52.50
22562;DHT22;11447;50.562;8.504;2022-08-19T10:28:16;27.50;52.70
22562;DHT22;11447;50.562;8.504;2022-08-19T10:30:45;27.50;52.40
22562;DHT22;11447;50.562;8.504;2022-08-19T10:33:11;27.60;51.90
22562;DHT22;11447;50.562;8.504;2022-08-19T10:35:40;27.60;52.10
22562;DHT22;11447;50.562;8.504;2022-08-19T10:38:22;27.50;52.10
22562;DHT22;11447;50.562;8.504;2022-08-19T10:40:57;27.60;52.40
22562;DHT22;11447;50.562;8.504;2022-08-19T10:43:26;27.50;52.10
22562;DHT22;11447;50.562;8.504;2022-08-19T10:45:54;27.60;52.20
22562;DHT22;11447;50.562;8.504;2022-08-19T10:48:27;27.70;51.70
22562;DHT22;11447;50.562;8.504;2022-08-19T10:50:53;27.70;51.00
22562;DHT22;11447;50.562;8.504;2022-08-19T10:53:49;27.70;51.20
22562;DHT22;11447;50.562;8.504;2022-08-19T10:56:17;27.80;51.60
22562;DHT22;11447;50.562;8.504;2022-08-19T10:59:03;27.90;51.00
22562;DHT22;11447;50.562;8.504;2022-08-19T11:01:30;27.90;50.70
22562;DHT22;11447;50.562;8.504;2022-08-19T11:04:00;27.90;50.30
22562;DHT22;11447;50.562;8.504;2022-08-19T11:06:29;28.00;50.70
22562;DHT22;11447;50.562;8.504;2022-08-19T11:08:57;28.00;50.50
22562;DHT22;11447;50.562;8.504;2022-08-19T11:11:24;28.10;50.30
22562;DHT22;11447;50.562;8.504;2022-08-19T11:13:50;28.10;50.30
22562;DHT22;11447;50.562;8.504;2022-08-19T11:16:20;28.20;47.90
22562;DHT22;11447;50.562;8.504;2022-08-19T11:18:49;28.10;48.10
22562;DHT22;11447;50.562;8.504;2022-08-19T11:21:20;28.20;48.00
22562;DHT22;11447;50.562;8.504;2022-08-19T11:23:48;28.30;48.00
22562;DHT22;11447;50.562;8.504;2022-08-19T11:26:15;28.30;47.00
22562;DHT22;11447;50.562;8.504;2022-08-19T11:28:44;28.30;47.70
22562;DHT22;11447;50.562;8.504;2022-08-19T11:31:13;28.30;47.50
22562;DHT22;11447;50.562;8.504;2022-08-19T11:33:43;28.30;47.70
22562;DHT22;11447;50.562;8.504;2022-08-19T11:36:13;28.40;47.50
22562;DHT22;11447;50.562;8.504;2022-08-19T11:38:40;28.40;47.40
22562;DHT22;11447;50.562;8.504;2022-08-19T11:41:07;28.50;47.60
22562;DHT22;11447;50.562;8.504;2022-08-19T11:43:39;28.50;48.40
22562;DHT22;11447;50.562;8.504;2022-08-19T11:46:07;28.60;47.30
22562;DHT22;11447;50.562;8.504;2022-08-19T11:48:34;28.60;46.50
22562;DHT22;11447;50.562;8.504;2022-08-19T11:51:04;28.60;46.40
22562;DHT22;11447;50.562;8.504;2022-08-19T11:53:32;28.50;47.30
22562;DHT22;11447;50.562;8.504;2022-08-19T11:56:02;28.50;46.50
22562;DHT22;11447;50.562;8.504;2022-08-19T11:58:29;28.40;46.20
22562;DHT22;11447;50.562;8.504;2022-08-19T12:00:56;28.40;46.50
22562;DHT22;11447;50.562;8.504;2022-08-19T12:03:23;28.40;46.80
22562;DHT22;11447;50.562;8.504;2022-08-19T12:05:50;28.30;46.40
22562;DHT22;11447;50.562;8.504;2022-08-19T12:08:16;28.30;46.40
22562;DHT22;11447;50.562;8.504;2022-08-19T12:10:43;28.30;46.30
22562;DHT22;11447;50.562;8.504;2022-08-19T12:13:15;28.20;45.80
22562;DHT22;11447;50.562;8.504;2022-08-19T12:15:46;28.30;46.50
22562;DHT22;11447;50.562;8.504;2022-08-19T12:18:13;28.40;46.70
22562;DHT22;11447;50.562;8.504;2022-08-19T12:20:43;28.40;46.90
22562;DHT22;11447;50.562;8.504;2022-08-19T12:23:10;28.50;46.60
22562;DHT22;11447;50.562;8.504;2022-08-19T12:25:37;28.40;46.40
22562;DHT22;11447;50.562;8.504;2022-08-19T12:28:04;28.40;45.90
22562;DHT22;11447;50.562;8.504;2022-08-19T12:30:33;28.40;45.90
22562;DHT22;11447;50.562;8.504;2022-08-19T12:33:02;28.40;46.10
22562;DHT22;11447;50.562;8.504;2022-08-19T12:35:29;28.30;45.80
22562;DHT22;11447;50.562;8.504;2022-08-19T12:37:56;28.40;45.60
22562;DHT22;11447;50.562;8.504;2022-08-19T12:40:23;28.40;46.20
22562;DHT22;11447;50.562;8.504;2022-08-19T12:42:53;28.50;46.30
22562;DHT22;11447;50.562;8.504;2022-08-19T12:45:22;28.60;46.00
22562;DHT22;11447;50.562;8.504;2022-08-19T12:47:54;28.70;45.30
22562;DHT22;11447;50.562;8.504;2022-08-19T12:50:21;28.70;43.90
22562;DHT22;11447;50.562;8.504;2022-08-19T12:52:47;28.80;44.30
22562;DHT22;11447;50.562;8.504;2022-08-19T12:55:14;28.80;43.80
22562;DHT22;11447;50.562;8.504;2022-08-19T12:57:41;28.90;44.40
22562;DHT22;11447;50.562;8.504;2022-08-19T13:02:39;29.00;43.70
22562;DHT22;11447;50.562;8.504;2022-08-19T13:05:07;29.10;43.90
22562;DHT22;11447;50.562;8.504;2022-08-19T13:07:35;29.10;44.20
22562;DHT22;11447;50.562;8.504;2022-08-19T13:10:03;29.10;44.40
22562;DHT22;11447;50.562;8.504;2022-08-19T13:12:33;29.10;43.80
22562;DHT22;11447;50.562;8.504;2022-08-19T13:14:59;29.10;42.50
22562;DHT22;11447;50.562;8.504;2022-08-19T13:17:26;29.10;43.60
22562;DHT22;11447;50.562;8.504;2022-08-19T13:19:53;29.10;43.30
22562;DHT22;11447;50.562;8.504;2022-08-19T13:22:19;29.20;43.00
22562;DHT22;11447;50.562;8.504;2022-08-19T13:24:46;29.20;43.50
22562;DHT22;11447;50.562;8.504;2022-08-19T13:27:13;29.30;43.40
22562;DHT22;11447;50.562;8.504;2022-08-19T13:29:42;29.30;43.00
22562;DHT22;11447;50.562;8.504;2022-08-19T13:32:30;29.30;43.20
22562;DHT22;11447;50.562;8.504;2022-08-19T13:35:16;29.30;43.20
22562;DHT22;11447;50.562;8.504;2022-08-19T13:37:43;29.30;42.80
22562;DHT22;11447;50.562;8.504;2022-08-19T13:40:15;29.30;43.50
22562;DHT22;11447;50.562;8.504;2022-08-19T13:42:45;29.40;42.90
22562;DHT22;11447;50.562;8.504;2022-08-19T13:45:13;29.40;43.20
22562;DHT22;11447;50.562;8.504;2022-08-19T13:47:41;29.40;42.90
22562;DHT22;11447;50.562;8.504;2022-08-19T13:50:11;29.40;43.30
22562;DHT22;11447;50.562;8.504;2022-08-19T13:52:39;29.50;43.00
22562;DHT22;11447;50.562;8.504;2022-08-19T13:55:06;29.50;41.70
22562;DHT22;11447;50.562;8.504;2022-08-19T13:57:35;29.40;42.80
22562;DHT22;11447;50.562;8.504;2022-08-19T14:00:09;29.40;42.10
22562;DHT22;11447;50.562;8.504;2022-08-19T14:02:39;29.40;42.60
22562;DHT22;11447;50.562;8.504;2022-08-19T14:05:08;29.50;42.10
22562;DHT22;11447;50.562;8.504;2022-08-19T14:07:35;29.60;42.40
22562;DHT22;11447;50.562;8.504;2022-08-19T14:10:04;29.60;42.30
22562;DHT22;11447;50.562;8.504;2022-08-19T14:12:31;29.60;42.30
22562;DHT22;11447;50.562;8.504;2022-08-19T14:15:00;29.60;42.40
22562;DHT22;11447;50.562;8.504;2022-08-19T14:17:27;29.60;42.20
22562;DHT22;11447;50.562;8.504;2022-08-19T14:19:58;29.60;42.10
22562;DHT22;11447;50.562;8.504;2022-08-19T14:22:36;29.60;42.40
22562;DHT22;11447;50.562;8.504;2022-08-19T14:25:04;29.60;42.50
22562;DHT22;11447;50.562;8.504;2022-08-19T14:27:33;29.70;43.10
22562;DHT22;11447;50.562;8.504;2022-08-19T14:30:01;29.60;42.40
22562;DHT22;11447;50.562;8.504;2022-08-19T14:32:28;29.50;42.20
22562;DHT22;11447;50.562;8.504;2022-08-19T14:34:55;29.50;42.50
22562;DHT22;11447;50.562;8.504;2022-08-19T14:37:22;29.50;42.70
22562;DHT22;11447;50.562;8.504;2022-08-19T14:39:53;29.50;42.60
22562;DHT22;11447;50.562;8.504;2022-08-19T14:42:20;29.50;42.50
22562;DHT22;11447;50.562;8.504;2022-08-19T14:44:47;29.60;42.60
22562;DHT22;11447;50.562;8.504;2022-08-19T14:47:16;29.60;42.30
22562;DHT22;11447;50.562;8.504;2022-08-19T14:49:44;29.60;42.20
22562;DHT22;11447;50.562;8.504;2022-08-19T14:52:15;29.70;41.90
22562;DHT22;11447;50.562;8.504;2022-08-19T14:54:42;29.70;41.60
22562;DHT22;11447;50.562;8.504;2022-08-19T14:57:11;29.70;42.10
22562;DHT22;11447;50.562;8.504;2022-08-19T14:59:38;29.70;41.50
22562;DHT22;11447;50.562;8.504;2022-08-19T15:02:07;29.70;41.30
22562;DHT22;11447;50.562;8.504;2022-08-19T15:04:56;29.70;41.90
22562;DHT22;11447;50.562;8.504;2022-08-19T15:07:24;29.70;41.10
22562;DHT22;11447;50.562;8.504;2022-08-19T15:09:54;29.70;41.40
22562;DHT22;11447;50.562;8.504;2022-08-19T15:12:21;29.70;41.50
22562;DHT22;11447;50.562;8.504;2022-08-19T15:14:49;29.70;41.30
22562;DHT22;11447;50.562;8.504;2022-08-19T15:17:21;29.70;41.60
22562;DHT22;11447;50.562;8.504;2022-08-19T15:20:07;29.70;41.50
22562;DHT22;11447;50.562;8.504;2022-08-19T15:22:34;29.70;41.10
22562;DHT22;11447;50.562;8.504;2022-08-19T15:25:02;29.70;40.50
22562;DHT22;11447;50.562;8.504;2022-08-19T15:27:32;29.80;41.00
22562;DHT22;11447;50.562;8.504;2022-08-19T15:29:59;29.80;40.50
22562;DHT22;11447;50.562;8.504;2022-08-19T15:32:27;29.70;40.70
22562;DHT22;11447;50.562;8.504;2022-08-19T15:34:59;29.70;40.50
22562;DHT22;11447;50.562;8.504;2022-08-19T15:37:29;29.70;40.70
22562;DHT22;11447;50.562;8.504;2022-08-19T15:39:57;29.80;40.80
22562;DHT22;11447;50.562;8.504;2022-08-19T15:42:27;29.70;40.20
22562;DHT22;11447;50.562;8.504;2022-08-19T15:44:55;29.70;39.50
22562;DHT22;11447;50.562;8.504;2022-08-19T15:47:27;29.70;40.80
22562;DHT22;11447;50.562;8.504;2022-08-19T15:50:00;29.70;40.30
22562;DHT22;11447;50.562;8.504;2022-08-19T15:52:27;29.70;40.40
22562;DHT22;11447;50.562;8.504;2022-08-19T15:54:58;29.80;40.30
22562;DHT22;11447;50.562;8.504;2022-08-19T15:57:25;29.90;40.50
22562;DHT22;11447;50.562;8.504;2022-08-19T15:59:54;29.90;40.30
22562;DHT22;11447;50.562;8.504;2022-08-19T16:02:42;30.00;40.60
22562;DHT22;11447;50.562;8.504;2022-08-19T16:05:27;29.90;40.60
22562;DHT22;11447;50.562;8.504;2022-08-19T16:08:12;29.80;40.70